Scandinavia, Nebraska
Current Conditions -  °F | °C
As of 10:55 AM on Thursday 30 Oct 2014 (Local Time) from KHDE Reporting Station
Clear Clear  
Wind Chill: 55°   Ceiling: Unl
Heat Index: 55°   Visibility: 10mi
Dew Point: 33°   Wind: 14mph
Humidity: 44%   Direction: 330°NNW
Pressure: 30.21"   Gusts: 20mph
Location:  40.3071°N, 99.2358°W
Report Text: KHDE 301555Z AUTO 33012G17KT 10SM CLR 13/01 A3021 RMK AO2 T01270007
Loading
Personal Weather Stations






























Interactive Weather Map
Tropical Storm Tracking
New forecast layout! Learn more

10-Day Weather Forecast

Advertisements
Track Severe Weather on mobile